Peotone Weather
Peotone-Weather Station Historical Data
 
Daily Summary for October 22, 2019 Units:  English    Metric   Both
Daily Weekly Monthly Yearly Custom
  Current: High: Low: Average:
Temperature: 50 °F 50.4 °F 47.1 °F 48.9 °F
Dew Point: 39.2 °F 40 °F 38.3 °F 39.1 °F
Humidity: 66.2% 74% 65% 69%
Wind Speed: 17mph 19.7mph 7.3mph 12.9mph
Wind Gust: 33.3mph 39.1mph - -
WindWSW - - SSW
Pressure: 29.67 in 29.67 in 29.56 in -
Precipitation: 0.00 in      
Historical Graphs
 
 
Tabular Data for October 22, 2019
Time Temperature Dew Point Pressure Wind Wind Speed Wind Gust Humidity Rainfall Rate (Hourly) solar
00:04 50.4 °F 39.1 °F 29.59 in South 9.1 mph 14.9 mph 65% 0.00 in 0 W/m2
00:09 50.4 °F 39.1 °F 29.59 in South 7.3 mph 14.9 mph 65% 0.00 in 0 W/m2
00:14 50.4 °F 39.1 °F 29.59 in South 10.3 mph 18.4 mph 65% 0.00 in 0 W/m2
00:19 50.3 °F 39 °F 29.59 in South 9 mph 18.4 mph 65% 0.00 in 0 W/m2
00:24 50.3 °F 39.4 °F 29.59 in South 9.2 mph 16.1 mph 66% 0.00 in 0 W/m2
00:29 50.2 °F 39.3 °F 29.59 in South 10.5 mph 17.2 mph 66% 0.00 in 0 W/m2
00:34 50.2 °F 39.3 °F 29.59 in South 11.2 mph 19.5 mph 66% 0.00 in 0 W/m2
00:39 50.1 °F 39.2 °F 29.59 in South 9.8 mph 19.5 mph 66% 0.00 in 0 W/m2
00:44 50.1 °F 39.2 °F 29.59 in South 9 mph 16.1 mph 66% 0.00 in 0 W/m2
00:49 50.1 °F 39.2 °F 29.59 in South 8.9 mph 14.9 mph 66% 0.00 in 0 W/m2
00:54 50 °F 39.1 °F 29.59 in South 10.9 mph 20.7 mph 66% 0.00 in 0 W/m2
00:59 49.9 °F 39 °F 29.59 in South 10.5 mph 20.7 mph 66% 0.00 in 0 W/m2
01:04 49.8 °F 38.9 °F 29.59 in South 12 mph 20.7 mph 66% 0.00 in 0 W/m2
01:09 49.8 °F 38.9 °F 29.59 in South 11 mph 20.7 mph 66% 0.00 in 0 W/m2
01:14 49.8 °F 38.9 °F 29.59 in South 10.7 mph 20.7 mph 66% 0.00 in 0 W/m2
01:19 49.8 °F 39.1 °F 29.59 in South 11.1 mph 23 mph 66.4% 0.00 in 0 W/m2
01:24 49.8 °F 39.3 °F 29.59 in South 12 mph 23 mph 67% 0.00 in 0 W/m2
01:29 49.8 °F 39.3 °F 29.59 in South 11.9 mph 20.7 mph 67% 0.00 in 0 W/m2
01:34 49.7 °F 39.2 °F 29.58 in South 11.9 mph 20.7 mph 67% 0.00 in 0 W/m2
01:39 49.7 °F 39.2 °F 29.59 in South 12.4 mph 19.5 mph 67% 0.00 in 0 W/m2
01:44 49.7 °F 39.2 °F 29.59 in South 10.9 mph 19.5 mph 67% 0.00 in 0 W/m2
01:49 49.6 °F 39.1 °F 29.59 in South 10.6 mph 19.5 mph 67% 0.00 in 0 W/m2
01:54 49.5 °F 39 °F 29.59 in South 11.1 mph 23 mph 67% 0.00 in 0 W/m2
01:59 49.5 °F 39 °F 29.59 in South 11.4 mph 23 mph 67% 0.00 in 0 W/m2
02:04 49.4 °F 38.9 °F 29.58 in South 9.9 mph 20.7 mph 67% 0.00 in 0 W/m2
02:09 49.3 °F 38.8 °F 29.58 in South 9.5 mph 18.4 mph 67% 0.00 in 0 W/m2
02:14 49.2 °F 38.7 °F 29.58 in South 10.7 mph 18.4 mph 67% 0.00 in 0 W/m2
02:19 49.1 °F 38.9 °F 29.58 in South 9.1 mph 18.4 mph 67.7% 0.00 in 0 W/m2
02:24 49.1 °F 38.8 °F 29.58 in South 10.9 mph 20.7 mph 67.5% 0.00 in 0 W/m2
02:29 49 °F 38.8 °F 29.58 in South 11.6 mph 21.9 mph 67.7% 0.00 in 0 W/m2
02:34 49 °F 38.9 °F 29.57 in South 12 mph 21.9 mph 68% 0.00 in 0 W/m2
02:39 48.9 °F 38.8 °F 29.57 in South 11.9 mph 21.9 mph 68% 0.00 in 0 W/m2
02:44 48.9 °F 38.8 °F 29.57 in South 11.6 mph 19.5 mph 68% 0.00 in 0 W/m2
02:49 48.9 °F 38.8 °F 29.57 in South 12.6 mph 21.9 mph 68% 0.00 in 0 W/m2
02:54 49 °F 38.9 °F 29.57 in SSW 13.5 mph 24.1 mph 68% 0.00 in 0 W/m2
02:59 49 °F 38.9 °F 29.57 in SSW 14 mph 24.1 mph 67.8% 0.00 in 0 W/m2
03:04 49.1 °F 38.9 °F 29.57 in South 12.3 mph 24.1 mph 67.7% 0.00 in 0 W/m2
03:09 49.2 °F 39 °F 29.57 in SSW 11.4 mph 23 mph 67.6% 0.00 in 0 W/m2
03:14 49.2 °F 39.1 °F 29.56 in SSW 13.7 mph 23 mph 68% 0.00 in 0 W/m2
03:19 49.2 °F 39.1 °F 29.57 in SSW 12.2 mph 23 mph 68% 0.00 in 0 W/m2
03:24 49.2 °F 39 °F 29.57 in SSW 12.1 mph 23 mph 67.7% 0.00 in 0 W/m2
03:29 49.2 °F 39.1 °F 29.57 in SSW 11.9 mph 21.9 mph 68% 0.00 in 0 W/m2
03:34 49.3 °F 39.2 °F 29.56 in SSW 13 mph 25.3 mph 68% 0.00 in 0 W/m2
03:39 49.3 °F 39.2 °F 29.56 in South 13.8 mph 25.3 mph 68% 0.00 in 0 W/m2
03:44 49.4 °F 39.3 °F 29.56 in South 12.9 mph 25.3 mph 68% 0.00 in 0 W/m2
03:49 49.4 °F 39.3 °F 29.56 in South 12.7 mph 25.3 mph 68% 0.00 in 0 W/m2
03:54 49.3 °F 39.2 °F 29.56 in South 11.2 mph 20.7 mph 68% 0.00 in 0 W/m2
03:59 49.2 °F 39.1 °F 29.56 in South 11.5 mph 25.3 mph 68% 0.00 in 0 W/m2
04:04 49.1 °F 39 °F 29.56 in South 10.4 mph 25.3 mph 68% 0.00 in 0 W/m2
04:09 49 °F 38.9 °F 29.56 in South 12 mph 20.7 mph 68% 0.00 in 0 W/m2
04:14 48.9 °F 38.8 °F 29.56 in South 11.9 mph 20.7 mph 68% 0.00 in 0 W/m2
04:19 48.7 °F 38.8 °F 29.56 in South 11.1 mph 23 mph 68.5% 0.00 in 0 W/m2
04:24 48.7 °F 39 °F 29.56 in South 11.5 mph 23 mph 69% 0.00 in 0 W/m2
04:29 48.7 °F 39 °F 29.56 in SSW 11.1 mph 20.7 mph 69% 0.00 in 0 W/m2
04:34 48.6 °F 38.9 °F 29.56 in SSW 11.8 mph 21.9 mph 69% 0.00 in 0 W/m2
04:39 48.5 °F 38.8 °F 29.56 in SSW 13.1 mph 25.3 mph 69% 0.00 in 0 W/m2
04:44 48.4 °F 38.7 °F 29.56 in South 13.6 mph 25.3 mph 69% 0.00 in 0 W/m2
04:49 48.3 °F 38.6 °F 29.56 in SSW 11.9 mph 21.9 mph 69% 0.00 in 0 W/m2
04:54 48.2 °F 38.5 °F 29.56 in SSW 11.3 mph 21.9 mph 69% 0.00 in 0 W/m2
04:59 48.1 °F 38.4 °F 29.56 in SSW 11.7 mph 21.9 mph 69% 0.00 in 0 W/m2
05:04 47.9 °F 38.6 °F 29.56 in South 11.3 mph 19.5 mph 69.9% 0.00 in 0 W/m2
05:09 47.8 °F 38.5 °F 29.56 in South 11.9 mph 18.4 mph 70% 0.00 in 0 W/m2
05:14 47.7 °F 38.4 °F 29.56 in SSW 11.4 mph 23 mph 70% 0.00 in 0 W/m2
05:19 47.5 °F 38.4 °F 29.56 in South 12.1 mph 23 mph 70.4% 0.00 in 0 W/m2
05:24 47.4 °F 38.5 °F 29.56 in South 11.6 mph 23 mph 71% 0.00 in 0 W/m2
05:29 47.3 °F 38.4 °F 29.56 in South 11.1 mph 23 mph 71% 0.00 in 0 W/m2
05:34 47.3 °F 38.3 °F 29.56 in South 11.5 mph 18.4 mph 71% 0.00 in 0 W/m2
05:39 47.2 °F 38.3 °F 29.56 in SSW 10.1 mph 18.4 mph 71% 0.00 in 0 W/m2
05:44 47.1 °F 38.5 °F 29.56 in SSW 11.4 mph 20.7 mph 71.7% 0.00 in 0 W/m2
05:49 47.1 °F 38.6 °F 29.56 in SSW 12.6 mph 20.7 mph 72% 0.00 in 0 W/m2
05:54 47.1 °F 38.6 °F 29.57 in SSW 11.9 mph 20.7 mph 72% 0.00 in 0 W/m2
05:59 47.1 °F 38.6 °F 29.57 in SSW 12.2 mph 20.7 mph 72% 0.00 in 0 W/m2
06:04 47.2 °F 38.6 °F 29.57 in SSW 11.2 mph 20.7 mph 72% 0.00 in 0 W/m2
06:09 47.3 °F 38.7 °F 29.57 in SW 11.9 mph 20.7 mph 72% 0.00 in 0 W/m2
06:14 47.4 °F 38.8 °F 29.57 in SW 13 mph 20.7 mph 72% 0.00 in 0 W/m2
06:19 47.5 °F 38.9 °F 29.57 in SW 15.3 mph 26.4 mph 72% 0.00 in 0 W/m2
06:24 47.5 °F 39 °F 29.57 in SSW 14 mph 26.4 mph 72% 0.00 in 0 W/m2
06:29 47.7 °F 39.1 °F 29.57 in SW 12.2 mph 24.1 mph 72% 0.00 in 0 W/m2
06:34 47.7 °F 39.1 °F 29.58 in SSW 12.6 mph 28.8 mph 72% 0.00 in 0 W/m2
06:39 47.8 °F 39.3 °F 29.58 in SW 13.6 mph 28.8 mph 72.1% 0.00 in 0 W/m2
06:44 47.9 °F 39.7 °F 29.58 in SW 11 mph 25.3 mph 73% 0.00 in 0 W/m2
06:49 47.9 °F 39.7 °F 29.58 in SW 17.2 mph 31 mph 73% 0.00 in 0 W/m2
06:54 48 °F 39.7 °F 29.58 in WSW 11.6 mph 31 mph 73% 0.00 in 0 W/m2
06:59 47.9 °F 39.7 °F 29.58 in SW 14.4 mph 24.1 mph 73% 0.00 in 0 W/m2
07:04 47.8 °F 39.6 °F 29.58 in SW 10.3 mph 24.1 mph 73% 0.00 in 0 W/m2
07:09 47.7 °F 39.5 °F 29.58 in SW 10.1 mph 20.7 mph 73% 0.00 in 5 W/m2
07:14 47.7 °F 39.5 °F 29.58 in SW 10.7 mph 21.9 mph 73% 0.00 in 7 W/m2
07:19 47.6 °F 39.7 °F 29.58 in SW 10.9 mph 21.9 mph 74% 0.00 in 9 W/m2
07:24 47.5 °F 39.7 °F 29.58 in SW 11.6 mph 19.5 mph 74% 0.00 in 16 W/m2
07:29 47.5 °F 39.6 °F 29.58 in SW 10 mph 19.5 mph 74% 0.00 in 16 W/m2
07:34 47.5 °F 39.7 °F 29.58 in SW 11.8 mph 23 mph 74% 0.00 in 19 W/m2
07:39 47.6 °F 39.8 °F 29.58 in SW 12.5 mph 24.1 mph 74% 0.00 in 18 W/m2
07:44 47.7 °F 39.9 °F 29.58 in SW 10.6 mph 24.1 mph 74% 0.00 in 25 W/m2
07:49 47.8 °F 40 °F 29.59 in SW 12 mph 20.7 mph 74% 0.00 in 32 W/m2
07:54 47.9 °F 39.8 °F 29.59 in SW 11.8 mph 28.8 mph 73.4% 0.00 in 33 W/m2
07:59 48 °F 39.8 °F 29.59 in SW 12.8 mph 28.8 mph 73% 0.00 in 46 W/m2
08:04 48.2 °F 39.9 °F 29.59 in SW 11.3 mph 23 mph 73% 0.00 in 46 W/m2
08:09 48.3 °F 39.9 °F 29.59 in SW 13 mph 24.1 mph 72.6% 0.00 in 49 W/m2
08:14 48.4 °F 39.8 °F 29.60 in SW 11.9 mph 24.1 mph 72% 0.00 in 44 W/m2
08:19 48.5 °F 39.9 °F 29.60 in SSW 11.8 mph 23 mph 72% 0.00 in 58 W/m2
08:24 48.6 °F 40 °F 29.60 in SW 12.6 mph 25.3 mph 72% 0.00 in 121 W/m2
08:29 48.7 °F 39.9 °F 29.60 in SW 15.9 mph 32.2 mph 71.4% 0.00 in 91 W/m2
08:34 48.9 °F 39.9 °F 29.61 in SW 18.2 mph 32.2 mph 71% 0.00 in 42 W/m2
08:39 49 °F 39.7 °F 29.61 in WSW 18.8 mph 29.9 mph 70.3% 0.00 in 44 W/m2
08:44 49 °F 39.6 °F 29.61 in SW 18.5 mph 31 mph 70% 0.00 in 40 W/m2
08:49 49 °F 39.6 °F 29.61 in SW 18.1 mph 31 mph 70% 0.00 in 53 W/m2
08:54 49 °F 39.6 °F 29.61 in SW 15.9 mph 26.4 mph 69.8% 0.00 in 76 W/m2
08:59 49 °F 39.7 °F 29.62 in WSW 18.7 mph 33.3 mph 70% 0.00 in 69 W/m2
09:04 49.1 °F 39.4 °F 29.62 in WSW 17.5 mph 33.3 mph 69.1% 0.00 in 65 W/m2
09:09 49.1 °F 39.1 °F 29.62 in WSW 16.3 mph 31 mph 68.2% 0.00 in 62 W/m2
09:14 49.1 °F 38.9 °F 29.62 in SW 16.9 mph 32.2 mph 67.8% 0.00 in 95 W/m2
09:19 49.2 °F 38.8 °F 29.63 in WSW 15.9 mph 32.2 mph 67.2% 0.00 in 123 W/m2
09:24 49.4 °F 38.9 °F 29.63 in WSW 16.5 mph 27.6 mph 67% 0.00 in 141 W/m2
09:29 49.6 °F 39.1 °F 29.63 in SW 15.9 mph 25.3 mph 67% 0.00 in 142 W/m2
09:34 49.8 °F 39.3 °F 29.63 in WSW 17.1 mph 27.6 mph 67% 0.00 in 148 W/m2
09:39 49.9 °F 39.5 °F 29.63 in SW 13.9 mph 27.6 mph 67.1% 0.00 in 105 W/m2
09:44 50 °F 39.9 °F 29.63 in SW 12.7 mph 26.4 mph 68% 0.00 in 125 W/m2
09:49 50.1 °F 39.9 °F 29.63 in SW 13.6 mph 23 mph 67.8% 0.00 in 127 W/m2
09:54 50.1 °F 39.6 °F 29.64 in WSW 14.1 mph 23 mph 67% 0.00 in 135 W/m2
09:59 50 °F 39.1 °F 29.64 in WSW 19.7 mph 27.6 mph 66% 0.00 in 162 W/m2
10:04 50 °F 39.1 °F 29.64 in WSW 17.3 mph 27.6 mph 66% 0.00 in 195 W/m2
10:09 50 °F 39.1 °F 29.64 in WSW 18.7 mph 28.8 mph 66% 0.00 in 195 W/m2
10:14 50.1 °F 39.1 °F 29.64 in WSW 17.7 mph 28.8 mph 65.8% 0.00 in 171 W/m2
10:19 50 °F 39 °F 29.64 in WSW 12.9 mph 26.4 mph 65.7% 0.00 in 90 W/m2
10:24 49.9 °F 39 °F 29.65 in SW 15.6 mph 27.6 mph 66% 0.00 in 70 W/m2
10:29 49.8 °F 38.9 °F 29.65 in WSW 15.1 mph 31 mph 66% 0.00 in 79 W/m2
10:34 49.8 °F 38.9 °F 29.65 in WSW 14.7 mph 31 mph 66% 0.00 in 137 W/m2
10:39 49.8 °F 38.9 °F 29.65 in WSW 16.7 mph 33.3 mph 66% 0.00 in 137 W/m2
10:44 49.8 °F 39 °F 29.65 in SW 17.2 mph 33.3 mph 66.3% 0.00 in 113 W/m2
10:49 49.8 °F 39.1 °F 29.65 in WSW 9.7 mph 27.6 mph 66.6% 0.00 in 113 W/m2
10:54 49.8 °F 39.3 °F 29.65 in SW 14 mph 23 mph 66.9% 0.00 in 123 W/m2
10:59 49.9 °F 39.1 °F 29.66 in WSW 17.9 mph 32.2 mph 66.4% 0.00 in 220 W/m2
11:04 49.9 °F 38.9 °F 29.66 in WSW 19.3 mph 39.1 mph 65.7% 0.00 in 225 W/m2
11:09 50 °F 39.1 °F 29.66 in SW 19.1 mph 39.1 mph 66% 0.00 in 220 W/m2
11:14 50.1 °F 39.2 °F 29.67 in WSW 18.1 mph 32.2 mph 66% 0.00 in 142 W/m2
11:19 50.1 °F 39.2 °F 29.67 in WSW 16.8 mph 33.3 mph 66.2% 0.00 in 149 W/m2
11:24 50 °F 39.2 °F 29.67 in WSW 17 mph 33.3 mph 66.2% 0.00 in 118 W/m2
Peotne Weather
Compliments of Weather Underground - 2 mb